Time;durP1;ratioP1;P1;durP2;ratioP2;P2;SDS_P1;SDS_P2;PMS_P1;PMS_P2;Temp;Humidity;BMP_temperature;BMP_pressure;BME280_temperature;BME280_humidity;BME280_pressure;Samples;Min_cycle;Max_cycle;Signal;HPM_P1;HPM_P2
2023/08/29 00:01:20;;;;;;;3.33;3.03;;;14.10;85.30;;;12.62;100.00;95083.03;4988193;28;20053;-72
2023/08/29 00:03:46;;;;;;;2.78;2.58;;;14.10;85.00;;;12.57;100.00;95082.91;4984579;28;20081;-74
2023/08/29 00:06:12;;;;;;;3.42;2.80;;;14.00;84.90;;;12.60;100.00;95086.91;4966775;28;20062;-73
2023/08/29 00:08:39;;;;;;;2.95;2.67;;;14.10;85.40;;;12.57;100.00;95096.88;4979829;28;20038;-72
2023/08/29 00:11:05;;;;;;;3.03;2.72;;;14.00;84.70;;;12.53;100.00;95095.75;4981120;28;20042;-74
2023/08/29 00:13:31;;;;;;;3.20;2.90;;;13.80;85.60;;;12.49;100.00;95096.41;4951361;28;20050;-73
2023/08/29 00:15:57;;;;;;;3.30;2.97;;;13.80;85.20;;;12.47;100.00;95098.47;4981245;28;20402;-73
2023/08/29 00:18:22;;;;;;;2.72;2.25;;;13.80;85.40;;;12.46;100.00;95096.88;4977901;28;20023;-74
2023/08/29 00:20:48;;;;;;;2.25;2.05;;;13.80;84.70;;;12.41;100.00;95094.09;4951010;28;20181;-71
2023/08/29 00:23:14;;;;;;;2.15;1.95;;;13.80;85.00;;;12.41;100.00;95099.34;4965774;28;20023;-74
2023/08/29 00:25:40;;;;;;;3.38;1.83;;;13.70;84.70;;;12.38;100.00;95094.53;4977637;28;20130;-73
2023/08/29 00:28:07;;;;;;;2.10;1.88;;;13.80;84.90;;;12.36;100.00;95096.59;4967088;28;20086;-73
2023/08/29 00:30:38;;;;;;;2.00;1.80;;;13.70;84.70;;;12.32;100.00;95105.97;4978906;28;20110;-73
2023/08/29 00:33:04;;;;;;;1.70;1.60;;;13.60;84.50;;;12.27;100.00;95104.03;4966302;28;20038;-73
2023/08/29 00:35:30;;;;;;;2.13;1.75;;;13.50;84.70;;;12.24;100.00;95109.75;4964405;28;20120;-74
2023/08/29 00:37:57;;;;;;;1.70;1.58;;;13.60;84.60;;;12.23;100.00;95105.50;4961097;28;20394;-73
2023/08/29 00:40:24;;;;;;;2.58;1.90;;;13.50;84.50;;;12.21;100.00;95104.91;4981375;28;20074;-72
2023/08/29 00:42:50;;;;;;;1.95;1.65;;;13.60;85.20;;;12.20;100.00;95103.28;4948457;28;20409;-73
2023/08/29 00:45:16;;;;;;;1.85;1.60;;;13.60;84.80;;;12.16;100.00;95110.84;4979667;28;20066;-73
2023/08/29 00:47:42;;;;;;;1.63;1.48;;;13.60;84.70;;;12.13;100.00;95111.28;4966587;28;20033;-73
2023/08/29 00:50:08;;;;;;;3.03;1.60;;;13.50;84.10;;;12.10;100.00;95095.94;4966511;28;20055;-73
2023/08/29 00:52:34;;;;;;;2.00;1.70;;;13.50;84.90;;;12.10;100.00;95098.56;4980263;28;20113;-73
2023/08/29 00:55:00;;;;;;;1.95;1.40;;;13.60;84.90;;;12.07;100.00;95100.84;4966866;28;20514;-72
2023/08/29 00:57:25;;;;;;;1.92;1.60;;;13.40;84.50;;;12.04;100.00;95096.81;4965651;28;20145;-74
2023/08/29 00:59:51;;;;;;;1.75;1.65;;;13.40;84.70;;;12.03;100.00;95105.75;4966885;28;20105;-72
2023/08/29 01:02:17;;;;;;;2.97;2.00;;;13.40;85.00;;;12.00;100.00;95108.03;4964534;28;20054;-72
2023/08/29 01:04:43;;;;;;;2.17;1.80;;;13.20;85.10;;;11.94;100.00;95117.59;4978923;28;20517;-74
2023/08/29 01:07:09;;;;;;;2.33;1.90;;;13.10;85.50;;;11.95;100.00;95114.75;4953846;28;20054;-70
2023/08/29 01:09:37;;;;;;;1.92;1.73;;;13.30;85.30;;;11.94;100.00;95114.97;4979729;28;20058;-72
2023/08/29 01:12:11;;;;;;;2.45;1.95;;;13.30;85.30;;;11.93;100.00;95113.38;4951482;28;20042;-72
2023/08/29 01:14:55;;;;;;;2.60;2.00;;;13.20;85.50;;;11.91;100.00;95115.41;4950645;28;20597;-73
2023/08/29 01:17:43;;;;;;;3.45;1.98;;;13.20;85.70;;;11.92;100.00;95103.84;4978646;28;20037;-72
2023/08/29 01:20:09;;;;;;;3.08;2.17;;;13.40;85.60;;;11.92;100.00;95106.50;4955282;28;20030;-71
2023/08/29 01:22:46;;;;;;;2.38;2.00;;;13.30;85.30;;;11.94;100.00;95099.16;4950816;28;20684;-72
2023/08/29 01:25:19;;;;;;;3.00;2.10;;;13.20;85.30;;;11.92;100.00;95096.75;4963086;28;20045;-73
2023/08/29 01:27:45;;;;;;;2.10;1.90;;;13.30;85.60;;;11.90;100.00;95101.44;4947870;28;20026;-73
2023/08/29 01:30:11;;;;;;;2.03;1.83;;;13.20;85.20;;;11.86;100.00;95096.84;4948816;28;20030;-74
2023/08/29 01:32:37;;;;;;;2.70;1.80;;;13.10;86.00;;;11.82;100.00;95093.03;4963577;28;20042;-73
2023/08/29 01:35:04;;;;;;;2.10;1.67;;;13.10;85.50;;;11.82;100.00;95090.41;4948789;28;20034;-73
2023/08/29 01:37:30;;;;;;;2.00;1.80;;;13.10;85.50;;;11.81;100.00;95096.72;4951824;28;20506;-72
2023/08/29 01:39:56;;;;;;;2.58;1.60;;;13.10;85.40;;;11.76;100.00;95097.31;4970656;28;20062;-74
2023/08/29 01:42:21;;;;;;;3.03;1.73;;;13.00;86.10;;;11.76;100.00;95092.03;4977863;28;20113;-71
2023/08/29 01:44:47;;;;;;;1.83;1.70;;;13.10;86.00;;;11.73;100.00;95095.13;4980780;28;20231;-71
2023/08/29 01:47:13;;;;;;;2.08;1.60;;;13.00;85.80;;;11.75;100.00;95092.25;4985959;28;20052;-71
2023/08/29 01:49:39;;;;;;;1.83;1.50;;;13.10;85.70;;;11.69;100.00;95095.78;4967630;28;20463;-72
2023/08/29 01:52:04;;;;;;;1.67;1.58;;;12.90;85.90;;;11.63;100.00;95093.00;4968910;28;20517;-72
2023/08/29 01:54:30;;;;;;;2.33;1.70;;;12.90;86.10;;;11.65;100.00;95100.69;4965692;28;20038;-72
2023/08/29 01:56:56;;;;;;;1.73;1.60;;;12.90;86.00;;;11.61;100.00;95102.16;4984500;28;20109;-72
2023/08/29 01:59:22;;;;;;;1.73;1.50;;;12.90;85.80;;;11.60;100.00;95104.00;4950637;28;20030;-72
2023/08/29 02:01:48;;;;;;;2.00;1.77;;;13.00;85.80;;;11.61;100.00;95104.78;4962926;28;20343;-72
2023/08/29 02:04:14;;;;;;;1.85;1.67;;;13.00;85.50;;;11.58;100.00;95106.03;4950677;28;20100;-73
2023/08/29 02:06:40;;;;;;;2.50;2.17;;;12.80;85.90;;;11.54;100.00;95096.97;4957209;28;20566;-68
2023/08/29 02:09:06;;;;;;;2.30;2.00;;;12.70;86.40;;;11.54;100.00;95104.88;4987745;28;20502;-72
2023/08/29 02:11:32;;;;;;;2.20;2.00;;;12.90;86.20;;;11.56;100.00;95102.81;4985399;28;20049;-72
2023/08/29 02:13:58;;;;;;;2.28;2.08;;;12.90;85.70;;;11.55;100.00;95101.22;4983587;28;20498;-72
2023/08/29 02:16:24;;;;;;;2.58;2.10;;;12.80;85.80;;;11.54;100.00;95106.69;4981983;28;20038;-72
2023/08/29 02:18:52;;;;;;;2.20;2.00;;;12.80;85.90;;;11.53;100.00;95099.81;4987086;28;20027;-72
2023/08/29 02:21:17;;;;;;;2.15;1.95;;;12.80;86.10;;;11.49;100.00;95098.63;4981304;28;20062;-72
2023/08/29 02:23:43;;;;;;;2.55;2.22;;;12.60;86.10;;;11.48;100.00;95104.94;4981506;28;20046;-72
2023/08/29 02:26:09;;;;;;;1.75;1.65;;;12.70;85.90;;;11.47;100.00;95098.06;4985054;28;20065;-72
2023/08/29 02:28:36;;;;;;;1.75;1.60;;;12.80;86.10;;;11.44;100.00;95086.13;4976575;28;20023;-72
2023/08/29 02:31:05;;;;;;;2.08;1.80;;;12.80;85.90;;;11.43;100.00;95092.41;4966934;28;20076;-72
2023/08/29 02:33:33;;;;;;;2.30;2.00;;;12.70;85.90;;;11.44;100.00;95094.03;4965587;28;20071;-72
2023/08/29 02:35:59;;;;;;;1.90;1.63;;;12.80;86.10;;;11.44;100.00;95083.50;4973415;28;20486;-72
2023/08/29 02:38:24;;;;;;;1.92;1.63;;;12.80;86.00;;;11.45;100.00;95092.19;4982504;28;20100;-72
2023/08/29 02:40:50;;;;;;;11.93;10.20;;;12.80;85.90;;;11.47;100.00;95093.59;4983713;28;21618;-73
2023/08/29 02:43:16;;;;;;;9.23;8.15;;;12.90;85.90;;;11.50;100.00;95087.88;4983863;28;20683;-72
2023/08/29 02:45:41;;;;;;;2.40;2.10;;;12.90;86.00;;;11.51;100.00;95094.75;4963400;28;20062;-72
2023/08/29 02:48:07;;;;;;;1.77;1.67;;;12.80;85.80;;;11.46;100.00;95083.28;4979755;28;20398;-72
2023/08/29 02:50:33;;;;;;;2.17;1.65;;;12.90;86.10;;;11.51;100.00;95089.50;4985017;28;20086;-71
2023/08/29 02:52:59;;;;;;;1.63;1.52;;;12.90;86.00;;;11.52;100.00;95087.66;4983262;28;20077;-72
2023/08/29 02:55:25;;;;;;;2.15;1.88;;;12.90;85.90;;;11.52;100.00;95080.56;4998424;28;20031;-72
2023/08/29 02:57:51;;;;;;;2.08;1.70;;;12.90;85.80;;;11.52;100.00;95079.75;4967512;28;20113;-69
2023/08/29 03:00:17;;;;;;;1.42;1.33;;;12.80;86.00;;;11.49;100.00;95075.75;4981634;28;20529;-71
2023/08/29 03:02:43;;;;;;;2.20;1.20;;;12.90;86.20;;;11.51;100.00;95083.41;4965189;28;20030;-73
2023/08/29 03:05:09;;;;;;;1.60;1.50;;;12.80;85.60;;;11.48;100.00;95079.41;4965241;28;20129;-72
2023/08/29 03:07:35;;;;;;;3.03;1.85;;;12.80;86.30;;;11.47;100.00;95083.06;4990571;28;20057;-72
2023/08/29 03:10:00;;;;;;;1.70;1.58;;;12.70;86.30;;;11.48;100.00;95089.13;4986159;28;20518;-73
2023/08/29 03:12:26;;;;;;;2.10;1.40;;;12.90;86.50;;;11.47;100.00;95085.69;4997778;28;20482;-73
2023/08/29 03:14:55;;;;;;;2.33;1.70;;;12.90;86.20;;;11.48;100.00;95084.66;4981285;28;20113;-72
2023/08/29 03:17:23;;;;;;;1.58;1.38;;;12.90;86.10;;;11.45;100.00;95074.56;4984151;28;20548;-72
2023/08/29 03:19:49;;;;;;;2.00;1.52;;;12.80;86.50;;;11.43;100.00;95067.91;4966159;28;20027;-73
2023/08/29 03:22:15;;;;;;;1.58;1.48;;;12.70;86.60;;;11.42;100.00;95075.00;4951046;28;20110;-73
2023/08/29 03:24:45;;;;;;;1.50;1.40;;;12.80;86.40;;;11.44;100.00;95067.69;4966840;28;25264;-73
2023/08/29 03:27:10;;;;;;;1.45;1.35;;;12.90;86.50;;;11.43;100.00;95076.63;4946640;28;20077;-72
2023/08/29 03:29:36;;;;;;;3.50;3.20;;;12.80;86.50;;;11.42;100.00;95066.31;4994378;28;20046;-73
2023/08/29 03:32:02;;;;;;;13.77;11.15;;;12.80;86.80;;;11.41;100.00;95062.88;4950945;28;20053;-71
2023/08/29 03:34:27;;;;;;;5.18;2.13;;;12.80;87.00;;;11.40;100.00;95061.25;4985005;28;20050;-73
2023/08/29 03:36:53;;;;;;;2.15;1.70;;;12.70;87.20;;;11.38;100.00;95068.59;4972799;28;20112;-72
2023/08/29 03:39:19;;;;;;;8.85;7.95;;;12.60;87.00;;;11.39;100.00;95067.56;4982142;28;20158;-73
2023/08/29 03:41:45;;;;;;;5.43;4.80;;;12.70;87.20;;;11.38;100.00;95060.69;4980588;28;20486;-72
2023/08/29 03:44:12;;;;;;;7.93;6.65;;;12.70;87.60;;;11.41;100.00;95069.97;4965894;28;20082;-73
2023/08/29 03:46:37;;;;;;;3.30;2.95;;;12.80;87.10;;;11.41;100.00;95070.78;4981210;28;20054;-72
2023/08/29 03:49:03;;;;;;;2.28;1.90;;;12.90;87.10;;;11.43;100.00;95060.03;4962791;28;20088;-72
2023/08/29 03:51:30;;;;;;;2.78;2.28;;;12.80;86.70;;;11.42;100.00;95061.84;4979869;28;20027;-72
2023/08/29 03:53:56;;;;;;;8.93;7.32;;;12.80;86.60;;;11.45;100.00;95065.88;4966645;28;20492;-73
2023/08/29 03:56:21;;;;;;;5.10;3.45;;;12.80;87.10;;;11.47;100.00;95062.00;4982370;28;20378;-71
2023/08/29 03:58:49;;;;;;;2.10;1.88;;;12.80;86.80;;;11.42;100.00;95064.47;4974156;28;20141;-73
2023/08/29 04:01:15;;;;;;;3.47;1.65;;;12.80;87.10;;;11.47;100.00;95079.63;4978286;28;20366;-72
2023/08/29 04:03:41;;;;;;;4.28;3.47;;;12.80;86.90;;;11.49;100.00;95083.63;4966609;28;20030;-72
2023/08/29 04:06:06;;;;;;;5.75;5.03;;;13.00;86.90;;;11.47;100.00;95083.06;4951276;28;20168;-73
2023/08/29 04:08:32;;;;;;;8.75;7.00;;;12.90;86.60;;;11.49;100.00;95081.00;4967226;28;20053;-70
2023/08/29 04:10:58;;;;;;;2.80;2.10;;;13.00;86.60;;;11.52;100.00;95080.56;4979028;28;20042;-72
2023/08/29 04:13:24;;;;;;;2.08;1.58;;;13.00;86.20;;;11.53;100.00;95069.00;4983786;28;20035;-72
2023/08/29 04:15:49;;;;;;;2.28;1.65;;;13.00;86.60;;;11.56;100.00;95075.69;4980394;28;20023;-73
2023/08/29 04:18:15;;;;;;;1.50;1.40;;;13.10;86.50;;;11.54;100.00;95075.91;4981743;28;20027;-72
2023/08/29 04:20:43;;;;;;;3.08;1.60;;;13.00;86.60;;;11.56;100.00;95081.75;4977195;28;20030;-73
2023/08/29 04:23:10;;;;;;;1.20;1.10;;;12.90;86.80;;;11.56;100.00;95076.50;4978288;28;20041;-73
2023/08/29 04:25:36;;;;;;;3.10;2.50;;;13.00;86.50;;;11.56;100.00;95073.84;4948150;28;20074;-72
2023/08/29 04:28:05;;;;;;;5.35;4.85;;;13.10;86.50;;;11.56;100.00;95076.50;4959730;28;20498;-71
2023/08/29 04:30:31;;;;;;;2.25;1.73;;;12.90;86.60;;;11.55;100.00;95074.88;4981357;28;20081;-72
2023/08/29 04:32:58;;;;;;;1.23;1.13;;;12.90;86.30;;;11.53;100.00;95076.09;4980024;28;20830;-73
2023/08/29 04:35:24;;;;;;;1.20;1.10;;;12.90;86.60;;;11.54;100.00;95073.28;4949715;28;20026;-72
2023/08/29 04:37:49;;;;;;;1.30;1.20;;;13.10;86.50;;;11.57;100.00;95072.03;4966956;28;20084;-73
2023/08/29 04:40:21;;;;;;;1.13;1.02;;;13.00;86.20;;;11.55;100.00;95074.88;4967863;28;20054;-72
2023/08/29 04:42:47;;;;;;;1.10;1.00;;;13.00;86.50;;;11.53;100.00;95087.44;4976985;28;20037;-72
2023/08/29 04:45:13;;;;;;;1.48;1.17;;;12.90;86.70;;;11.53;100.00;95087.44;4966423;28;20080;-71
2023/08/29 04:47:39;;;;;;;1.73;1.08;;;12.90;86.60;;;11.56;100.00;95087.03;4977503;28;20028;-72
2023/08/29 04:50:06;;;;;;;1.40;0.90;;;13.00;86.60;;;11.57;100.00;95088.63;4948455;28;20027;-70
2023/08/29 04:52:32;;;;;;;1.02;0.80;;;13.10;86.60;;;11.60;100.00;95080.28;4951821;28;20030;-71
2023/08/29 04:54:58;;;;;;;1.00;0.90;;;13.10;86.30;;;11.63;100.00;95085.13;4962648;28;20519;-68
2023/08/29 04:57:24;;;;;;;3.53;0.80;;;13.10;86.10;;;11.61;100.00;95083.72;4949492;28;20037;-67
2023/08/29 04:59:50;;;;;;;1.85;0.90;;;13.10;86.20;;;11.63;100.00;95081.69;4982703;28;20110;-67
2023/08/29 05:02:16;;;;;;;1.10;0.90;;;13.10;86.40;;;11.64;100.00;95075.38;4967291;28;20031;-71
2023/08/29 05:04:42;;;;;;;1.23;1.05;;;13.10;86.20;;;11.66;100.00;95071.50;4936659;28;20054;-72
2023/08/29 05:07:09;;;;;;;1.33;1.00;;;13.20;86.40;;;11.69;100.00;95075.53;4974759;28;20478;-68
2023/08/29 05:09:35;;;;;;;1.88;1.50;;;13.20;86.20;;;11.70;100.00;95076.31;4981152;28;20598;-66
2023/08/29 05:12:04;;;;;;;2.65;2.03;;;13.20;86.20;;;11.71;100.00;95078.75;4947343;28;20077;-68
2023/08/29 05:14:30;;;;;;;1.95;1.30;;;13.20;86.40;;;11.73;100.00;95070.59;4970884;28;20038;-69
2023/08/29 05:16:56;;;;;;;2.13;1.88;;;13.20;86.20;;;11.72;100.00;95069.00;4969728;28;20165;-71
2023/08/29 05:19:22;;;;;;;2.20;1.88;;;13.10;86.40;;;11.73;100.00;95073.25;4972295;28;20030;-71
2023/08/29 05:21:48;;;;;;;12.98;8.23;;;13.20;86.10;;;11.75;100.00;95079.91;4962111;28;20781;-70
2023/08/29 05:24:14;;;;;;;2.70;2.03;;;13.20;86.30;;;11.75;100.00;95079.91;4977950;28;20043;-69
2023/08/29 05:26:40;;;;;;;1.10;1.00;;;13.30;86.50;;;11.80;100.00;95076.66;4973907;28;20546;-72
2023/08/29 05:29:05;;;;;;;1.70;1.20;;;13.30;86.00;;;11.81;100.00;95086.16;4981151;28;20589;-70
2023/08/29 05:31:31;;;;;;;1.30;0.93;;;13.40;86.20;;;11.83;100.00;95086.75;4969090;28;20047;-70
2023/08/29 05:33:57;;;;;;;1.00;0.90;;;13.30;86.20;;;11.83;100.00;95081.47;4993203;28;20539;-72
2023/08/29 05:36:22;;;;;;;1.10;1.00;;;13.40;86.20;;;11.83;100.00;95081.47;4965309;28;20572;-71
2023/08/29 05:38:48;;;;;;;2.78;0.90;;;13.20;86.30;;;11.86;100.00;95083.66;4982255;28;20057;-71
2023/08/29 05:41:14;;;;;;;1.10;1.00;;;13.40;86.40;;;11.88;100.00;95089.50;4974242;28;20086;-70
2023/08/29 05:43:40;;;;;;;1.48;1.02;;;13.40;86.30;;;11.89;100.00;95085.84;4965225;28;20084;-71
2023/08/29 05:46:06;;;;;;;1.23;1.13;;;13.40;86.00;;;11.87;100.00;95078.16;4980216;28;20062;-71
2023/08/29 05:48:32;;;;;;;2.28;1.20;;;13.30;86.30;;;11.88;100.00;95078.97;4979814;28;20097;-69
2023/08/29 05:50:58;;;;;;;1.35;1.25;;;13.30;86.00;;;11.87;100.00;95080.00;4977838;28;20036;-72
2023/08/29 05:53:23;;;;;;;1.55;1.38;;;13.40;86.40;;;11.88;100.00;95079.78;4950274;28;20051;-71
2023/08/29 05:55:49;;;;;;;1.60;1.50;;;13.40;86.40;;;11.88;100.00;95085.06;4978555;28;20505;-72
2023/08/29 05:58:16;;;;;;;3.47;1.70;;;13.50;86.30;;;11.91;100.00;95092.50;4964981;28;20097;-71
2023/08/29 06:00:41;;;;;;;2.22;1.90;;;13.40;86.30;;;11.92;100.00;95095.94;4951334;28;20023;-71
2023/08/29 06:03:08;;;;;;;3.42;1.80;;;13.50;86.40;;;11.94;100.00;95096.53;4977876;28;20043;-70
2023/08/29 06:05:36;;;;;;;2.53;1.90;;;13.60;86.40;;;11.94;100.00;95096.53;4969980;28;20097;-72
2023/08/29 06:08:03;;;;;;;2.05;1.40;;;13.60;86.30;;;11.96;100.00;95097.91;4962482;28;20061;-71
2023/08/29 06:10:32;;;;;;;1.70;1.60;;;13.60;86.20;;;11.95;100.00;95098.94;4978855;28;20061;-70
2023/08/29 06:12:57;;;;;;;1.73;1.30;;;13.50;86.30;;;11.99;100.00;95103.75;4960332;28;20671;-71
2023/08/29 06:15:23;;;;;;;1.35;1.25;;;13.60;86.10;;;12.01;100.00;95099.91;4936542;28;20486;-70
2023/08/29 06:17:50;;;;;;;2.15;1.50;;;13.50;86.20;;;12.01;100.00;95110.44;4995063;28;20565;-71
2023/08/29 06:20:16;;;;;;;1.42;1.30;;;13.50;86.40;;;12.01;100.00;95113.09;4965439;28;20033;-72
2023/08/29 06:22:42;;;;;;;1.40;1.30;;;13.50;86.50;;;12.00;100.00;95119.38;4982243;28;20032;-71
2023/08/29 06:25:09;;;;;;;1.40;1.25;;;13.40;86.90;;;12.02;100.00;95114.69;4978504;28;20506;-68
2023/08/29 06:27:36;;;;;;;2.78;1.20;;;13.50;86.70;;;12.03;100.00;95113.66;4969272;28;20046;-69
2023/08/29 06:30:02;;;;;;;1.92;1.10;;;13.50;86.60;;;12.06;100.00;95122.97;4981357;28;20114;-69
2023/08/29 06:32:29;;;;;;;1.98;1.25;;;13.60;86.40;;;12.07;100.00;95128.00;4969805;28;20498;-68
2023/08/29 06:34:55;;;;;;;1.60;1.25;;;13.60;86.70;;;12.07;100.00;95130.63;4985076;28;20030;-69
2023/08/29 06:37:21;;;;;;;1.13;1.02;;;13.60;86.50;;;12.10;100.00;95132.81;4952115;28;20445;-70
2023/08/29 06:39:47;;;;;;;1.25;1.15;;;13.70;86.30;;;12.12;100.00;95141.31;4980217;28;20031;-68
2023/08/29 06:42:13;;;;;;;1.10;1.00;;;13.60;86.30;;;12.13;100.00;95140.28;4974187;28;20048;-67
2023/08/29 06:44:38;;;;;;;1.58;1.15;;;13.60;86.20;;;12.12;100.00;95141.31;4965131;28;20541;-67
2023/08/29 06:47:04;;;;;;;1.95;1.20;;;13.70;86.20;;;12.15;100.00;95143.50;4966621;28;20512;-67
2023/08/29 06:49:30;;;;;;;11.98;10.60;;;13.60;86.50;;;12.21;100.00;95149.72;4991830;28;20547;-68
2023/08/29 06:51:56;;;;;;;8.30;7.50;;;13.80;86.70;;;12.25;100.00;95141.16;4981507;28;20022;-70
2023/08/29 06:54:22;;;;;;;4.68;3.80;;;13.90;86.40;;;12.26;100.00;95134.06;4954373;28;20056;-71
2023/08/29 06:56:49;;;;;;;3.53;2.88;;;13.90;86.00;;;12.32;100.00;95140.25;4981426;28;20026;-71
2023/08/29 06:59:15;;;;;;;2.72;2.35;;;14.00;85.80;;;12.34;100.00;95146.91;4984313;28;20045;-70
2023/08/29 07:01:41;;;;;;;1.10;1.00;;;14.00;85.60;;;12.36;100.00;95144.88;4960790;28;20030;-71
2023/08/29 07:04:08;;;;;;;0.77;0.77;;;14.10;85.40;;;12.39;100.00;95148.88;4965918;28;20161;-71
2023/08/29 07:06:34;;;;;;;2.72;0.80;;;14.10;85.60;;;12.41;100.00;95150.28;4951385;28;20026;-71
2023/08/29 07:09:03;;;;;;;1.23;0.80;;;14.10;85.60;;;12.44;100.00;95151.66;4973811;28;20047;-74
2023/08/29 07:11:29;;;;;;;1.08;0.98;;;14.00;85.40;;;12.44;100.00;95143.75;4941110;28;20112;-72
2023/08/29 07:13:55;;;;;;;1.95;1.00;;;14.00;85.50;;;12.45;100.00;95148.00;4972380;28;20509;-69
2023/08/29 07:16:21;;;;;;;1.90;0.90;;;13.90;85.90;;;12.46;100.00;95154.91;4984627;28;20070;-69
2023/08/29 07:18:47;;;;;;;0.60;0.60;;;14.00;85.60;;;12.44;100.00;95156.94;4978361;28;20403;-69
2023/08/29 07:21:12;;;;;;;1.00;0.90;;;13.90;85.60;;;12.42;100.00;95154.50;4980990;28;20033;-68
2023/08/29 07:23:38;;;;;;;1.23;1.00;;;13.90;86.00;;;12.44;100.00;95156.94;4953132;28;20074;-72
2023/08/29 07:26:04;;;;;;;1.20;1.10;;;13.90;86.00;;;12.46;100.00;95162.81;4983880;28;20125;-72
2023/08/29 07:28:29;;;;;;;1.25;1.15;;;14.00;85.80;;;12.48;100.00;95166.84;4979661;28;20050;-70
2023/08/29 07:30:57;;;;;;;0.90;0.80;;;14.10;86.00;;;12.50;100.00;95177.16;4996503;28;20039;-71
2023/08/29 07:33:23;;;;;;;0.93;0.90;;;14.10;85.70;;;12.52;100.00;95172.47;4980657;28;20113;-72
2023/08/29 07:35:49;;;;;;;0.98;0.88;;;14.10;85.80;;;12.55;100.00;95179.91;4986544;28;20088;-71
2023/08/29 07:38:16;;;;;;;2.28;0.70;;;14.20;85.70;;;12.58;100.00;95174.19;4983437;28;20100;-69
2023/08/29 07:40:46;;;;;;;0.80;0.80;;;14.20;85.60;;;12.64;100.00;95173.28;4981117;28;20101;-71
2023/08/29 07:43:13;;;;;;;0.85;0.63;;;14.30;85.50;;;12.69;100.00;95176.09;4966389;28;20056;-70
2023/08/29 07:45:39;;;;;;;0.77;0.65;;;14.40;85.00;;;12.73;100.00;95171.97;4967733;28;20490;-68
2023/08/29 07:48:05;;;;;;;0.60;0.60;;;14.40;85.20;;;12.80;100.00;95179.78;4978983;28;20065;-67
2023/08/29 07:50:31;;;;;;;1.00;0.60;;;14.50;85.10;;;12.83;100.00;95182.78;4957061;28;20034;-70
2023/08/29 07:52:57;;;;;;;0.40;0.40;;;14.50;85.10;;;12.87;100.00;95176.00;4971997;28;20031;-69
2023/08/29 07:55:23;;;;;;;0.60;0.60;;;14.60;84.70;;;12.86;100.00;95176.22;4980140;28;20035;-70
2023/08/29 07:57:48;;;;;;;0.88;0.50;;;14.50;84.80;;;12.91;100.00;95178.22;4969034;28;20464;-70
2023/08/29 08:00:15;;;;;;;0.80;0.60;;;14.60;84.40;;;12.98;100.00;95184.19;4982360;28;20629;-68
2023/08/29 08:02:41;;;;;;;0.77;0.60;;;14.70;84.40;;;13.02;100.00;95174.78;4986367;28;20529;-69
2023/08/29 08:05:14;;;;;;;0.93;0.70;;;14.80;84.30;;;13.05;100.00;95172.50;4967653;28;20612;-69
2023/08/29 08:07:41;;;;;;;0.88;0.80;;;14.80;84.00;;;13.08;100.00;95184.44;4961291;28;20100;-69
2023/08/29 08:10:07;;;;;;;1.20;0.80;;;14.80;84.20;;;13.11;100.00;95183.97;4949500;28;20169;-70
2023/08/29 08:12:34;;;;;;;0.75;0.70;;;14.80;83.90;;;13.18;100.00;95177.63;4950691;28;20046;-69
2023/08/29 08:15:00;;;;;;;0.90;0.73;;;14.90;84.20;;;13.27;100.00;95180.72;4965938;28;20026;-69
2023/08/29 08:17:26;;;;;;;0.65;0.65;;;15.10;83.20;;;13.34;100.00;95184.03;4979100;28;20034;-67
2023/08/29 08:19:52;;;;;;;0.63;0.63;;;15.20;83.20;;;13.42;100.00;95180.28;4963700;28;20118;-70
2023/08/29 08:22:17;;;;;;;0.80;0.80;;;15.30;82.80;;;13.47;100.00;95183.84;4964361;28;20105;-69
2023/08/29 08:24:43;;;;;;;0.50;0.50;;;15.30;82.80;;;13.53;100.00;95184.75;4947753;28;20066;-68
2023/08/29 08:27:09;;;;;;;1.90;0.70;;;15.40;82.20;;;13.58;100.00;95184.06;4964617;28;20113;-69
2023/08/29 08:29:35;;;;;;;0.98;0.77;;;15.40;82.00;;;13.60;100.00;95184.66;4981786;28;20051;-69
2023/08/29 08:32:01;;;;;;;1.05;0.93;;;15.50;82.30;;;13.65;100.00;95185.56;4983402;28;20056;-68
2023/08/29 08:34:26;;;;;;;6.20;5.60;;;15.50;82.80;;;13.71;100.00;95191.75;4979732;28;20423;-67
2023/08/29 08:36:52;;;;;;;2.53;1.95;;;15.60;83.40;;;13.77;100.00;95193.47;4967452;28;20030;-68
2023/08/29 08:39:18;;;;;;;0.50;0.50;;;15.60;82.70;;;13.79;100.00;95192.22;4965880;28;20058;-69
2023/08/29 08:41:44;;;;;;;0.60;0.47;;;15.40;81.20;;;13.77;100.00;95204.03;4980982;28;20074;-69
2023/08/29 08:44:11;;;;;;;0.50;0.50;;;15.40;81.80;;;13.76;100.00;95202.44;4981452;28;20032;-69
2023/08/29 08:46:38;;;;;;;0.55;0.50;;;15.50;81.80;;;13.74;100.00;95209.81;4966498;28;20061;-68
2023/08/29 08:49:06;;;;;;;0.65;0.52;;;15.40;80.80;;;13.71;100.00;95212.91;4950213;28;20054;-68
2023/08/29 08:51:32;;;;;;;0.55;0.50;;;15.40;81.90;;;13.69;100.00;95207.84;4983528;28;20098;-69
2023/08/29 08:53:58;;;;;;;0.55;0.47;;;15.30;81.70;;;13.70;100.00;95214.75;4948952;28;20027;-68
2023/08/29 08:56:24;;;;;;;0.75;0.55;;;15.30;81.40;;;13.69;100.00;95214.97;4952287;28;20019;-68
2023/08/29 08:58:50;;;;;;;0.38;0.38;;;15.30;81.90;;;13.69;100.00;95214.97;4977973;28;20022;-69
2023/08/29 09:01:15;;;;;;;0.38;0.38;;;15.20;81.80;;;13.70;100.00;95217.38;4984315;28;20415;-69
2023/08/29 09:03:42;;;;;;;0.60;0.50;;;15.30;81.40;;;13.71;100.00;95215.56;4982282;28;20034;-68
2023/08/29 09:06:09;;;;;;;0.40;0.40;;;15.30;81.40;;;13.71;100.00;95218.19;4983814;28;20042;-71
2023/08/29 09:08:35;;;;;;;0.55;0.47;;;15.50;81.90;;;13.74;100.00;95215.09;4981285;28;20027;-69
2023/08/29 09:11:01;;;;;;;1.02;0.60;;;15.40;81.50;;;13.74;100.00;95225.66;4978517;28;20050;-69
2023/08/29 09:13:27;;;;;;;0.60;0.43;;;15.60;81.90;;;13.79;100.00;95228.41;4960782;28;22123;-70
2023/08/29 09:15:53;;;;;;;0.50;0.30;;;15.60;81.30;;;13.78;100.00;95230.25;4961914;28;20030;-70
2023/08/29 09:18:31;;;;;;;0.90;0.50;;;15.50;80.70;;;13.82;100.00;95229.81;4964124;28;20461;-69
2023/08/29 09:21:00;;;;;;;0.93;0.43;;;15.50;81.00;;;13.87;100.00;95230.72;4979286;28;20034;-70
2023/08/29 09:23:27;;;;;;;0.57;0.50;;;15.80;81.10;;;13.94;100.00;95234.03;4944627;28;20038;-70
2023/08/29 09:25:58;;;;;;;11.38;9.40;;;15.90;80.80;;;14.02;100.00;95236.31;4962299;28;20038;-71
2023/08/29 09:28:30;;;;;;;;;;;15.90;80.50;;;14.08;100.00;95238.06;4979857;28;20370;-68
2023/08/29 09:31:04;;;;;;;1.10;1.00;;;16.10;80.60;;;14.16;100.00;95236.91;4974356;28;19914;-69
2023/08/29 09:33:30;;;;;;;0.77;0.60;;;16.10;80.70;;;14.22;100.00;95238.59;4969354;28;20039;-70
2023/08/29 09:35:56;;;;;;;0.40;0.40;;;16.20;80.50;;;14.30;100.00;95232.97;4958690;28;20548;-70
2023/08/29 09:38:22;;;;;;;0.45;0.40;;;16.30;80.30;;;14.38;100.00;95242.38;4948786;28;20035;-73
2023/08/29 09:40:48;;;;;;;0.95;0.30;;;16.30;79.30;;;14.44;100.00;95236.19;4957543;28;20049;-72
2023/08/29 09:43:15;;;;;;;2.83;0.50;;;16.40;79.40;;;14.48;100.00;95245.25;4977705;28;20033;-73
2023/08/29 09:45:41;;;;;;;0.70;0.38;;;16.30;79.70;;;14.48;100.00;95247.91;4971957;28;20046;-74
2023/08/29 09:48:08;;;;;;;0.45;0.22;;;16.30;80.00;;;14.52;100.00;95243.78;4954242;28;20050;-73
2023/08/29 09:50:34;;;;;;;1.75;0.50;;;16.50;79.70;;;14.56;100.00;95244.09;4955707;28;20084;-74
2023/08/29 09:53:00;;;;;;;0.50;0.43;;;16.40;79.70;;;14.62;100.00;95249.25;4961785;28;20026;-74
2023/08/29 09:55:26;;;;;;;0.63;0.30;;;16.60;80.10;;;14.72;100.00;95243.38;4965666;28;20035;-76
2023/08/29 09:57:53;;;;;;;0.50;0.50;;;16.70;79.10;;;14.73;100.00;95249.47;4978658;28;20062;-74
2023/08/29 10:00:22;;;;;;;0.60;0.60;;;16.60;78.90;;;14.75;100.00;95242.09;4976894;28;20038;-73
2023/08/29 10:02:48;;;;;;;0.57;0.57;;;16.60;78.80;;;14.79;100.00;95243.22;4979359;28;20022;-74
2023/08/29 10:05:14;;;;;;;0.55;0.50;;;16.60;78.60;;;14.82;100.00;95243.56;4992976;28;20047;-74
2023/08/29 10:07:42;;;;;;;0.50;0.50;;;16.90;78.90;;;14.89;100.00;95243.41;4950512;28;20500;-74
2023/08/29 10:10:09;;;;;;;0.40;0.40;;;16.70;78.70;;;14.92;100.00;95243.75;4976409;28;20593;-74